Time;durP1;ratioP1;P1;durP2;ratioP2;P2;SDS_P1;SDS_P2;PMS_P1;PMS_P2;Temp;Humidity;BMP_temperature;BMP_pressure;BME280_temperature;BME280_humidity;BME280_pressure;Samples;Min_cycle;Max_cycle;Signal;HPM_P1;HPM_P2
2023/05/29 00:01:57;;;;;;;10.05;4.95;;;;;;;;;;5057081;28;20471;-72
2023/05/29 00:04:43;;;;;;;10.55;5.05;;;;;;;;;;5067918;28;20037;-72
2023/05/29 00:07:32;;;;;;;8.65;5.07;;;;;;;;;;5055686;28;20033;-71
2023/05/29 00:10:17;;;;;;;8.60;5.05;;;;;;;;;;5044021;28;20040;-70
2023/05/29 00:13:03;;;;;;;9.73;4.72;;;;;;;;;;5042500;28;20029;-71
2023/05/29 00:15:48;;;;;;;8.88;4.90;;;;;;;;;;5061809;28;20052;-70
2023/05/29 00:18:34;;;;;;;9.88;4.75;;;;;;;;;;5056561;28;20116;-71
2023/05/29 00:21:20;;;;;;;7.68;4.70;;;;;;;;;;5056572;28;20134;-70
2023/05/29 00:24:05;;;;;;;8.80;4.50;;;;;;;;;;5046329;28;20086;-75
2023/05/29 00:26:50;;;;;;;8.50;4.78;;;;;;;;;;5047089;28;20025;-75
2023/05/29 00:29:36;;;;;;;8.20;4.53;;;;;;;;;;5053318;28;20037;-76
2023/05/29 00:32:21;;;;;;;11.20;5.05;;;;;;;;;;5053096;28;20033;-76
2023/05/29 00:35:07;;;;;;;6.88;4.28;;;;;;;;;;5057892;28;20028;-76
2023/05/29 00:37:52;;;;;;;10.65;4.50;;;;;;;;;;5044140;28;20032;-70
2023/05/29 00:40:39;;;;;;;7.45;4.25;;;;;;;;;;5050322;28;20537;-70
2023/05/29 00:43:24;;;;;;;10.05;4.60;;;;;;;;;;5055806;28;20387;-69
2023/05/29 00:46:11;;;;;;;10.48;5.15;;;;;;;;;;5069382;28;20036;-69
2023/05/29 00:48:57;;;;;;;11.57;4.95;;;;;;;;;;5056419;28;20036;-68
2023/05/29 00:51:43;;;;;;;7.25;4.53;;;;;;;;;;5046117;28;20032;-70
2023/05/29 00:54:29;;;;;;;8.57;4.20;;;;;;;;;;5069388;28;20027;-69
2023/05/29 00:57:16;;;;;;;9.18;4.18;;;;;;;;;;5049063;28;20033;-66
2023/05/29 01:00:07;;;;;;;9.18;4.63;;;;;;;;;;5035063;28;20124;-70
2023/05/29 01:02:53;;;;;;;11.05;4.45;;;;;;;;;;5059270;28;20041;-70
2023/05/29 01:05:38;;;;;;;7.78;4.10;;;;;;;;;;5076786;28;20087;-70
2023/05/29 01:08:23;;;;;;;12.10;4.75;;;;;;;;;;5068652;28;20036;-71
2023/05/29 01:11:23;;;;;;;8.65;4.70;;;;;;;;;;5026825;28;20037;-72
2023/05/29 01:14:09;;;;;;;;;;;;;;;;;;5035957;28;20025;-70
2023/05/29 01:16:59;;;;;;;9.25;4.80;;;;;;;;;;5044939;28;20308;-76
2023/05/29 01:19:53;;;;;;;8.77;4.75;;;;;;;;;;5050607;28;20032;-78
2023/05/29 01:22:47;;;;;;;12.80;5.10;;;;;;;;;;5035143;28;20043;-76
2023/05/29 01:25:52;;;;;;;8.70;4.70;;;;;;;;;;5040521;28;20483;-78
2023/05/29 01:28:40;;;;;;;9.77;4.32;;;;;;;;;;5047749;28;20033;-78
2023/05/29 01:31:26;;;;;;;8.60;4.47;;;;;;;;;;5034912;28;20033;-77
2023/05/29 01:34:11;;;;;;;7.70;4.15;;;;;;;;;;5037400;28;20378;-71
2023/05/29 01:36:57;;;;;;;10.38;4.57;;;;;;;;;;5048615;28;20410;-76
2023/05/29 01:39:42;;;;;;;8.30;4.35;;;;;;;;;;5062632;28;20398;-77
2023/05/29 01:42:28;;;;;;;10.57;4.50;;;;;;;;;;5062195;28;20060;-78
2023/05/29 01:45:16;;;;;;;13.00;4.90;;;;;;;;;;5034880;28;20045;-78
2023/05/29 01:48:02;;;;;;;14.05;4.70;;;;;;;;;;5028863;28;20028;-77
2023/05/29 01:50:50;;;;;;;10.93;4.43;;;;;;;;;;5045721;28;20112;-77
2023/05/29 01:53:35;;;;;;;8.80;4.35;;;;;;;;;;5062426;28;20025;-70
2023/05/29 01:56:21;;;;;;;8.45;4.68;;;;;;;;;;5034490;28;20029;-70
2023/05/29 01:59:07;;;;;;;13.02;4.32;;;;;;;;;;5023958;28;20071;-70
2023/05/29 02:01:52;;;;;;;11.93;5.65;;;;;;;;;;5042626;28;20040;-71
2023/05/29 02:04:38;;;;;;;6.57;4.20;;;;;;;;;;5048200;28;20029;-71
2023/05/29 02:07:23;;;;;;;8.68;4.75;;;;;;;;;;5062058;28;20497;-71
2023/05/29 02:10:08;;;;;;;11.13;4.78;;;;;;;;;;5034786;28;20052;-75
2023/05/29 02:12:54;;;;;;;7.53;3.88;;;;;;;;;;5034974;28;20483;-68
2023/05/29 02:15:39;;;;;;;8.68;3.80;;;;;;;;;;5048313;28;20040;-66
2023/05/29 02:18:25;;;;;;;9.77;4.43;;;;;;;;;;5048165;28;20033;-67
2023/05/29 02:21:11;;;;;;;7.82;4.18;;;;;;;;;;5034534;28;20040;-65
2023/05/29 02:23:56;;;;;;;8.10;4.80;;;;;;;;;;5025117;28;20238;-67
2023/05/29 02:26:42;;;;;;;10.20;3.83;;;;;;;;;;5046550;28;20034;-68
2023/05/29 02:29:27;;;;;;;8.02;4.22;;;;;;;;;;5047848;28;20041;-75
2023/05/29 02:32:12;;;;;;;9.98;4.60;;;;;;;;;;5030412;28;20388;-70
2023/05/29 02:34:57;;;;;;;10.15;4.28;;;;;;;;;;5036513;28;20331;-70
2023/05/29 02:37:42;;;;;;;7.68;4.25;;;;;;;;;;5047829;28;20044;-71
2023/05/29 02:40:28;;;;;;;10.82;4.35;;;;;;;;;;5047731;28;20171;-70
2023/05/29 02:43:14;;;;;;;7.95;4.20;;;;;;;;;;5047517;28;20112;-71
2023/05/29 02:45:59;;;;;;;7.10;3.92;;;;;;;;;;5034955;28;20033;-70
2023/05/29 02:48:44;;;;;;;5.90;3.42;;;;;;;;;;5038256;28;20029;-71
2023/05/29 02:51:32;;;;;;;10.15;4.40;;;;;;;;;;5047115;28;20064;-66
2023/05/29 02:54:17;;;;;;;8.98;4.88;;;;;;;;;;5047318;28;20533;-68
2023/05/29 02:57:02;;;;;;;6.65;4.20;;;;;;;;;;5033412;28;20376;-70
2023/05/29 02:59:48;;;;;;;8.93;3.90;;;;;;;;;;5048264;28;20112;-67
2023/05/29 03:02:34;;;;;;;9.73;4.28;;;;;;;;;;5047068;28;20025;-68
2023/05/29 03:05:20;;;;;;;7.63;3.60;;;;;;;;;;5047098;28;20167;-65
2023/05/29 03:08:05;;;;;;;11.30;4.72;;;;;;;;;;5040361;28;20037;-71
2023/05/29 03:10:51;;;;;;;8.18;3.88;;;;;;;;;;5038412;28;20029;-66
2023/05/29 03:13:37;;;;;;;8.60;4.30;;;;;;;;;;5035696;28;20080;-67
2023/05/29 03:16:22;;;;;;;8.93;4.50;;;;;;;;;;5050492;28;20028;-68
2023/05/29 03:19:07;;;;;;;9.25;4.05;;;;;;;;;;5051494;28;20186;-66
2023/05/29 03:21:53;;;;;;;6.88;4.05;;;;;;;;;;5037830;28;20021;-66
2023/05/29 03:24:38;;;;;;;9.30;3.92;;;;;;;;;;5040928;28;20060;-75
2023/05/29 03:27:23;;;;;;;7.50;4.10;;;;;;;;;;5042110;28;20029;-71
2023/05/29 03:30:09;;;;;;;7.18;3.75;;;;;;;;;;5049917;28;20075;-69
2023/05/29 03:32:54;;;;;;;9.95;4.45;;;;;;;;;;5051085;28;20116;-70
2023/05/29 03:35:40;;;;;;;7.45;3.97;;;;;;;;;;5039642;28;20025;-69
2023/05/29 03:38:25;;;;;;;10.77;4.07;;;;;;;;;;5051370;28;20036;-70
2023/05/29 03:41:10;;;;;;;6.38;3.40;;;;;;;;;;5051142;28;20028;-69
2023/05/29 03:43:55;;;;;;;7.00;3.65;;;;;;;;;;5050523;28;20055;-71
2023/05/29 03:46:41;;;;;;;5.43;3.53;;;;;;;;;;5037081;28;20170;-66
2023/05/29 03:49:26;;;;;;;7.53;3.78;;;;;;;;;;5041168;28;20035;-66
2023/05/29 03:52:11;;;;;;;8.80;3.92;;;;;;;;;;5050525;28;20032;-66
2023/05/29 03:54:56;;;;;;;11.15;4.22;;;;;;;;;;5050596;28;20025;-66
2023/05/29 03:57:41;;;;;;;10.77;4.18;;;;;;;;;;5036158;28;20201;-66
2023/05/29 04:00:27;;;;;;;10.00;4.28;;;;;;;;;;5035134;28;20044;-68
2023/05/29 04:03:12;;;;;;;11.00;4.50;;;;;;;;;;5043362;28;20029;-76
2023/05/29 04:05:57;;;;;;;10.50;3.83;;;;;;;;;;5048572;28;20100;-75
2023/05/29 04:08:42;;;;;;;12.95;3.83;;;;;;;;;;5049154;28;20047;-75
2023/05/29 04:11:28;;;;;;;8.90;4.53;;;;;;;;;;5036360;28;20028;-74
2023/05/29 04:14:13;;;;;;;9.38;4.43;;;;;;;;;;5039990;28;20467;-76
2023/05/29 04:16:58;;;;;;;8.18;4.20;;;;;;;;;;5049596;28;20123;-75
2023/05/29 04:19:43;;;;;;;6.78;3.78;;;;;;;;;;5035494;28;20175;-72
2023/05/29 04:22:28;;;;;;;7.40;3.45;;;;;;;;;;5036081;28;20052;-77
2023/05/29 04:25:15;;;;;;;9.68;4.22;;;;;;;;;;5038917;28;20036;-78
2023/05/29 04:28:02;;;;;;;8.02;3.80;;;;;;;;;;5037166;28;20052;-75
2023/05/29 04:30:47;;;;;;;11.30;4.90;;;;;;;;;;5049529;28;20037;-77
2023/05/29 04:33:36;;;;;;;7.35;4.13;;;;;;;;;;5049658;28;20102;-77
2023/05/29 04:36:25;;;;;;;6.55;3.75;;;;;;;;;;5037583;28;20033;-76
2023/05/29 04:39:10;;;;;;;10.10;4.67;;;;;;;;;;5041904;28;20132;-69
2023/05/29 04:41:58;;;;;;;7.70;3.70;;;;;;;;;;5048687;28;20757;-77
2023/05/29 04:44:43;;;;;;;7.93;4.03;;;;;;;;;;5042234;28;20074;-77
2023/05/29 04:47:29;;;;;;;8.88;4.72;;;;;;;;;;5035810;28;20554;-77
2023/05/29 04:50:14;;;;;;;8.00;3.58;;;;;;;;;;5040228;28;20043;-77
2023/05/29 04:52:59;;;;;;;10.10;3.78;;;;;;;;;;5035483;28;20035;-75
2023/05/29 04:55:45;;;;;;;9.98;4.32;;;;;;;;;;5049188;28;20110;-70
2023/05/29 04:58:30;;;;;;;11.00;4.55;;;;;;;;;;5027880;28;20537;-65
2023/05/29 05:01:15;;;;;;;9.40;4.32;;;;;;;;;;5026566;28;20075;-66
2023/05/29 05:04:00;;;;;;;9.55;4.45;;;;;;;;;;5048278;28;20083;-65
2023/05/29 05:06:46;;;;;;;8.95;4.57;;;;;;;;;;5048467;28;20116;-65
2023/05/29 05:09:31;;;;;;;7.78;3.85;;;;;;;;;;5045853;28;20041;-66
2023/05/29 05:12:16;;;;;;;7.05;4.28;;;;;;;;;;5027570;28;20292;-65
2023/05/29 05:15:02;;;;;;;9.80;5.22;;;;;;;;;;5028135;28;20175;-66
2023/05/29 05:17:47;;;;;;;8.02;4.70;;;;;;;;;;5047662;28;20143;-77
2023/05/29 05:20:32;;;;;;;7.53;4.20;;;;;;;;;;5040835;28;20499;-76
2023/05/29 05:23:18;;;;;;;8.30;4.28;;;;;;;;;;5022918;28;20033;-76
2023/05/29 05:26:03;;;;;;;7.38;3.85;;;;;;;;;;5032801;28;20036;-78
2023/05/29 05:28:48;;;;;;;8.52;4.40;;;;;;;;;;5040078;28;20037;-77
2023/05/29 05:31:33;;;;;;;6.45;3.60;;;;;;;;;;5032776;28;20038;-79
2023/05/29 05:34:19;;;;;;;8.63;4.13;;;;;;;;;;5045318;28;20155;-75
2023/05/29 05:37:04;;;;;;;8.60;4.00;;;;;;;;;;5021786;28;20024;-69
2023/05/29 05:39:53;;;;;;;5.65;3.38;;;;;;;;;;5039397;28;20471;-69
2023/05/29 05:42:38;;;;;;;10.80;4.20;;;;;;;;;;5062215;28;20024;-70
2023/05/29 05:45:23;;;;;;;9.23;4.30;;;;;;;;;;5047389;28;20035;-69
2023/05/29 05:48:09;;;;;;;7.45;3.65;;;;;;;;;;5030231;28;20479;-69
2023/05/29 05:50:54;;;;;;;15.82;5.53;;;;;;;;;;5037906;28;20491;-67
2023/05/29 05:53:39;;;;;;;10.10;4.55;;;;;;;;;;5048104;28;20041;-65
2023/05/29 05:56:26;;;;;;;7.97;4.13;;;;;;;;;;5046674;28;20513;-71
2023/05/29 05:59:11;;;;;;;9.05;3.92;;;;;;;;;;5040931;28;20124;-69
2023/05/29 06:01:56;;;;;;;8.05;4.32;;;;;;;;;;5031562;28;20040;-70
2023/05/29 06:04:41;;;;;;;7.13;3.78;;;;;;;;;;5031521;28;20356;-71
2023/05/29 06:07:26;;;;;;;7.53;4.10;;;;;;;;;;5046308;28;20035;-70
2023/05/29 06:10:13;;;;;;;10.45;4.22;;;;;;;;;;5033947;28;20028;-73
2023/05/29 06:12:58;;;;;;;9.27;3.70;;;;;;;;;;5019856;28;20031;-68
2023/05/29 06:15:43;;;;;;;7.93;4.22;;;;;;;;;;5037025;28;20029;-69
2023/05/29 06:18:28;;;;;;;9.05;4.63;;;;;;;;;;5061194;28;20037;-66
2023/05/29 06:21:14;;;;;;;7.38;3.95;;;;;;;;;;5046809;28;20124;-68
2023/05/29 06:23:59;;;;;;;8.40;4.50;;;;;;;;;;5026233;28;20075;-73
2023/05/29 06:26:44;;;;;;;10.77;4.80;;;;;;;;;;5027141;28;20025;-66
2023/05/29 06:29:30;;;;;;;9.13;4.22;;;;;;;;;;5046439;28;20032;-66
2023/05/29 06:32:16;;;;;;;7.38;3.90;;;;;;;;;;5047383;28;20360;-77
2023/05/29 06:35:01;;;;;;;9.85;4.75;;;;;;;;;;5047781;28;20021;-75
2023/05/29 06:37:46;;;;;;;7.35;4.05;;;;;;;;;;5033407;28;20039;-75
2023/05/29 06:40:31;;;;;;;9.52;4.70;;;;;;;;;;5025124;28;20035;-73
2023/05/29 06:43:17;;;;;;;9.52;5.13;;;;;;;;;;5048253;28;20434;-72
2023/05/29 06:46:02;;;;;;;8.80;4.88;;;;;;;;;;5048487;28;20035;-66
2023/05/29 06:48:47;;;;;;;8.80;4.35;;;;;;;;;;5037612;28;20037;-73
2023/05/29 06:51:33;;;;;;;8.50;4.90;;;;;;;;;;5016425;28;20018;-68
2023/05/29 06:54:18;;;;;;;9.80;4.82;;;;;;;;;;5040606;28;20038;-65
2023/05/29 06:57:03;;;;;;;8.27;4.30;;;;;;;;;;5048230;28;20120;-67
2023/05/29 06:59:49;;;;;;;9.35;4.78;;;;;;;;;;5041280;28;20044;-67
2023/05/29 07:02:34;;;;;;;10.70;5.00;;;;;;;;;;5029266;28;20379;-65
2023/05/29 07:05:19;;;;;;;7.47;4.20;;;;;;;;;;5038921;28;20033;-69
2023/05/29 07:08:04;;;;;;;9.68;5.07;;;;;;;;;;5050154;28;20021;-71
2023/05/29 07:10:50;;;;;;;9.85;4.85;;;;;;;;;;5041295;28;20021;-68
2023/05/29 07:13:35;;;;;;;9.50;4.95;;;;;;;;;;5024013;28;20132;-69
2023/05/29 07:16:20;;;;;;;8.10;4.43;;;;;;;;;;5032498;28;20418;-71
2023/05/29 07:19:06;;;;;;;12.50;5.05;;;;;;;;;;5047726;28;20062;-69
2023/05/29 07:21:51;;;;;;;8.52;4.00;;;;;;;;;;5042612;28;20360;-71
2023/05/29 07:24:36;;;;;;;8.68;4.03;;;;;;;;;;5036484;28;20036;-70
2023/05/29 07:27:22;;;;;;;9.20;4.32;;;;;;;;;;5036189;28;20086;-70
2023/05/29 07:30:07;;;;;;;11.13;4.57;;;;;;;;;;5031049;28;20037;-67
2023/05/29 07:32:52;;;;;;;9.30;4.57;;;;;;;;;;5044342;28;20037;-70
2023/05/29 07:35:38;;;;;;;10.10;4.55;;;;;;;;;;5041116;28;20410;-69
2023/05/29 07:38:23;;;;;;;7.63;4.43;;;;;;;;;;5025547;28;20107;-68
2023/05/29 07:41:08;;;;;;;7.63;4.68;;;;;;;;;;5029555;28;20107;-68
2023/05/29 07:43:55;;;;;;;8.05;4.22;;;;;;;;;;5044899;28;20029;-71
2023/05/29 07:46:40;;;;;;;8.30;4.28;;;;;;;;;;5043248;28;20029;-71
2023/05/29 07:49:25;;;;;;;7.30;4.20;;;;;;;;;;5044250;28;20055;-69
2023/05/29 07:52:11;;;;;;;8.93;4.55;;;;;;;;;;5025185;28;20043;-73
2023/05/29 07:54:56;;;;;;;10.85;5.20;;;;;;;;;;5031324;28;20434;-77
2023/05/29 07:57:42;;;;;;;11.10;4.65;;;;;;;;;;5041710;28;20754;-79
2023/05/29 08:00:28;;;;;;;12.50;5.28;;;;;;;;;;5035043;28;20561;-70
2023/05/29 08:03:13;;;;;;;9.52;4.07;;;;;;;;;;5029225;28;20032;-67
2023/05/29 08:05:58;;;;;;;8.32;4.32;;;;;;;;;;5028562;28;20036;-67
2023/05/29 08:08:44;;;;;;;6.55;3.85;;;;;;;;;;5031948;28;20035;-66
2023/05/29 08:11:29;;;;;;;7.50;4.15;;;;;;;;;;5051998;28;20411;-68
2023/05/29 08:14:15;;;;;;;9.57;4.50;;;;;;;;;;5037332;28;20525;-68
2023/05/29 08:17:00;;;;;;;7.80;4.43;;;;;;;;;;5027683;28;20021;-65
2023/05/29 08:19:45;;;;;;;8.43;4.80;;;;;;;;;;5044698;28;20082;-67
2023/05/29 08:22:33;;;;;;;12.18;5.20;;;;;;;;;;5035880;28;20021;-74
2023/05/29 08:25:19;;;;;;;11.20;4.82;;;;;;;;;;5034856;28;20041;-73
2023/05/29 08:28:04;;;;;;;9.23;4.35;;;;;;;;;;5025715;28;20039;-73
2023/05/29 08:30:49;;;;;;;12.30;4.60;;;;;;;;;;5020908;28;20143;-72
2023/05/29 08:33:36;;;;;;;9.50;4.78;;;;;;;;;;5021854;28;20037;-73
2023/05/29 08:36:21;;;;;;;7.75;4.35;;;;;;;;;;5035363;28;20036;-74
2023/05/29 08:39:07;;;;;;;9.07;4.63;;;;;;;;;;5019419;28;20041;-65
2023/05/29 08:41:58;;;;;;;9.23;4.97;;;;;;;;;;5035250;28;20142;-63
2023/05/29 08:44:46;;;;;;;9.68;4.75;;;;;;;;;;5037062;28;20025;-61
2023/05/29 08:47:33;;;;;;;8.55;4.32;;;;;;;;;;5039926;28;20039;-63
2023/05/29 08:50:19;;;;;;;9.40;4.63;;;;;;;;;;5018427;28;20479;-66
2023/05/29 08:53:05;;;;;;;9.43;4.55;;;;;;;;;;5038147;28;20112;-64
2023/05/29 08:55:52;;;;;;;7.70;4.57;;;;;;;;;;5049180;28;20078;-65
2023/05/29 08:58:37;;;;;;;9.38;4.95;;;;;;;;;;5048052;28;20044;-74
2023/05/29 09:01:23;;;;;;;9.50;4.35;;;;;;;;;;5059386;28;20120;-76
2023/05/29 09:04:08;;;;;;;7.10;4.43;;;;;;;;;;5027899;28;20340;-75
2023/05/29 09:06:55;;;;;;;11.60;4.22;;;;;;;;;;5032794;28;20449;-74
2023/05/29 09:09:40;;;;;;;8.10;4.85;;;;;;;;;;5045959;28;20148;-75
2023/05/29 09:12:26;;;;;;;12.35;4.90;;;;;;;;;;5048840;28;20124;-76
2023/05/29 09:15:18;;;;;;;10.43;4.55;;;;;;;;;;5034957;28;20078;-64
2023/05/29 09:18:04;;;;;;;9.05;4.70;;;;;;;;;;5037935;28;20536;-63
2023/05/29 09:20:49;;;;;;;9.73;4.47;;;;;;;;;;5058275;28;20468;-64
2023/05/29 09:23:35;;;;;;;8.25;4.40;;;;;;;;;;5032611;28;20025;-64
2023/05/29 09:26:21;;;;;;;12.80;5.22;;;;;;;;;;5029240;28;20047;-64
2023/05/29 09:29:08;;;;;;;8.85;4.63;;;;;;;;;;5029001;28;20139;-66
2023/05/29 09:31:53;;;;;;;10.80;4.82;;;;;;;;;;5038163;28;20025;-66
2023/05/29 09:34:39;;;;;;;7.15;3.80;;;;;;;;;;5057844;28;20594;-76
2023/05/29 09:37:24;;;;;;;10.68;4.43;;;;;;;;;;5045916;28;20025;-79
2023/05/29 09:40:10;;;;;;;6.47;3.95;;;;;;;;;;5030365;28;20025;-85
2023/05/29 09:42:55;;;;;;;6.90;3.90;;;;;;;;;;5032783;28;20029;-81
2023/05/29 09:45:41;;;;;;;9.63;4.88;;;;;;;;;;5039797;28;20376;-82
2023/05/29 09:48:27;;;;;;;8.00;4.30;;;;;;;;;;5026542;28;20040;-81
2023/05/29 09:51:19;;;;;;;8.75;4.63;;;;;;;;;;5024898;28;20029;-74
2023/05/29 09:54:15;;;;;;;12.80;4.90;;;;;;;;;;5034220;28;20072;-76
2023/05/29 09:57:01;;;;;;;10.32;5.03;;;;;;;;;;5017814;28;20072;-76
2023/05/29 09:59:51;;;;;;;8.43;4.72;;;;;;;;;;5037526;28;20431;-74
2023/05/29 10:02:36;;;;;;;10.63;4.78;;;;;;;;;;5019843;28;20072;-76
2023/05/29 10:05:22;;;;;;;8.10;4.53;;;;;;;;;;5030442;28;20041;-76
2023/05/29 10:08:09;;;;;;;10.05;4.40;;;;;;;;;;5034144;28;20109;-73
2023/05/29 10:10:58;;;;;;;7.80;3.80;;;;;;;;;;5037703;28;20467;-65
2023/05/29 10:13:48;;;;;;;6.50;3.85;;;;;;;;;;5015567;28;20028;-66
2023/05/29 10:16:37;;;;;;;7.85;3.92;;;;;;;;;;5031910;28;20025;-65
2023/05/29 10:19:24;;;;;;;7.28;4.20;;;;;;;;;;5039066;28;20033;-63
2023/05/29 10:22:10;;;;;;;7.20;3.70;;;;;;;;;;5039306;28;20082;-61
2023/05/29 10:24:56;;;;;;;8.27;4.72;;;;;;;;;;5027375;28;20079;-64
2023/05/29 10:27:42;;;;;;;11.48;4.82;;;;;;;;;;5031512;28;20545;-74
2023/05/29 10:30:29;;;;;;;9.45;4.57;;;;;;;;;;5025053;28;20044;-66
2023/05/29 10:33:30;;;;;;;9.07;3.90;;;;;;;;;;5035661;28;20048;-66
2023/05/29 10:36:23;;;;;;;8.85;3.50;;;;;;;;;;5038823;28;20060;-66
2023/05/29 10:39:09;;;;;;;5.72;3.45;;;;;;;;;;5028353;28;20033;-67
2023/05/29 10:41:58;;;;;;;7.75;4.30;;;;;;;;;;5039874;28;20021;-65
2023/05/29 10:44:43;;;;;;;8.00;4.85;;;;;;;;;;5035169;28;20419;-65
2023/05/29 10:47:29;;;;;;;9.57;4.13;;;;;;;;;;5021448;28;20510;-70
2023/05/29 10:50:34;;;;;;;9.57;5.25;;;;;;;;;;5031265;28;20033;-78
2023/05/29 10:53:24;;;;;;;8.30;3.88;;;;;;;;;;5041095;28;20055;-79
2023/05/29 10:56:15;;;;;;;6.75;3.97;;;;;;;;;;5035091;28;20428;-80
2023/05/29 10:59:03;;;;;;;7.15;3.95;;;;;;;;;;5042364;28;20025;-71
2023/05/29 11:01:52;;;;;;;9.25;3.83;;;;;;;;;;5024033;28;20029;-70
2023/05/29 11:04:37;;;;;;;9.40;4.10;;;;;;;;;;5041908;28;20028;-70
2023/05/29 11:07:32;;;;;;;8.05;4.18;;;;;;;;;;5043525;28;20044;-66
2023/05/29 11:10:17;;;;;;;9.40;4.05;;;;;;;;;;5030722;28;20526;-65
2023/05/29 11:13:04;;;;;;;9.40;4.00;;;;;;;;;;5042901;28;20090;-65
2023/05/29 11:16:03;;;;;;;7.72;3.58;;;;;;;;;;5043407;28;20616;-66
2023/05/29 11:18:49;;;;;;;10.30;3.72;;;;;;;;;;5044108;28;20085;-64
2023/05/29 11:21:57;;;;;;;8.88;3.97;;;;;;;;;;5016183;28;20029;-64
2023/05/29 11:24:44;;;;;;;7.68;3.88;;;;;;;;;;5039571;28;20029;-69
2023/05/29 11:27:29;;;;;;;5.18;3.05;;;;;;;;;;5038857;28;20772;-67
2023/05/29 11:30:14;;;;;;;7.43;3.40;;;;;;;;;;5022380;28;20104;-66
2023/05/29 11:33:01;;;;;;;7.00;3.03;;;;;;;;;;5032063;28;20059;-70
2023/05/29 11:35:48;;;;;;;9.80;4.05;;;;;;;;;;5043899;28;20029;-67
2023/05/29 11:38:33;;;;;;;7.80;4.30;;;;;;;;;;5044033;28;20107;-68
2023/05/29 11:41:19;;;;;;;7.82;3.78;;;;;;;;;;5028686;28;20037;-72
2023/05/29 11:44:05;;;;;;;7.50;3.15;;;;;;;;;;5030147;28;20040;-71
2023/05/29 11:47:04;;;;;;;5.93;4.03;;;;;;;;;;5053517;28;20029;-75
2023/05/29 11:49:49;;;;;;;6.18;3.25;;;;;;;;;;5040156;28;20029;-72
2023/05/29 11:52:35;;;;;;;9.50;3.95;;;;;;;;;;5023411;28;20020;-67
2023/05/29 11:55:21;;;;;;;8.93;3.50;;;;;;;;;;5033375;28;20115;-67
2023/05/29 11:58:06;;;;;;;9.45;4.00;;;;;;;;;;5044747;28;20022;-66
2023/05/29 12:00:51;;;;;;;6.90;3.63;;;;;;;;;;5039080;28;20100;-67
2023/05/29 12:03:38;;;;;;;9.20;3.92;;;;;;;;;;5048673;28;20040;-66
2023/05/29 12:06:34;;;;;;;8.27;3.67;;;;;;;;;;5031944;28;20033;-69
2023/05/29 12:09:26;;;;;;;9.60;4.55;;;;;;;;;;5035290;28;20056;-65
2023/05/29 12:12:11;;;;;;;7.65;4.45;;;;;;;;;;5045115;28;20490;-65
2023/05/29 12:14:56;;;;;;;9.23;4.80;;;;;;;;;;5030350;28;20028;-65
2023/05/29 12:17:42;;;;;;;10.23;5.05;;;;;;;;;;5036982;28;20039;-60
2023/05/29 12:20:27;;;;;;;7.75;4.00;;;;;;;;;;5031685;28;20036;-61
2023/05/29 12:23:12;;;;;;;6.30;3.58;;;;;;;;;;5028412;28;20040;-59
2023/05/29 12:25:58;;;;;;;8.90;4.22;;;;;;;;;;5042420;28;20040;-62
2023/05/29 12:28:44;;;;;;;5.10;2.97;;;;;;;;;;5025502;28;20383;-64
2023/05/29 12:31:30;;;;;;;7.68;3.50;;;;;;;;;;5031640;28;20056;-65
2023/05/29 12:34:15;;;;;;;8.00;3.88;;;;;;;;;;5043407;28;20052;-66
2023/05/29 12:37:05;;;;;;;11.55;4.35;;;;;;;;;;5045756;28;20065;-69
2023/05/29 12:40:29;;;;;;;9.38;4.25;;;;;;;;;;5042144;28;20036;-63
2023/05/29 12:43:15;;;;;;;7.78;3.63;;;;;;;;;;4963935;28;20034;-66
2023/05/29 12:46:01;;;;;;;6.10;3.40;;;;;;;;;;4976418;28;20073;-65
2023/05/29 12:48:46;;;;;;;6.15;3.20;;;;;;;;;;4974106;28;20042;-65
2023/05/29 12:51:31;;;;;;;8.18;3.38;;;;;;;;;;4968806;28;20096;-63
2023/05/29 12:54:17;;;;;;;9.75;3.33;;;;;;;;;;4959197;28;20050;-69
2023/05/29 12:57:02;;;;;;;7.82;3.40;;;;;;;;;;4973485;28;20034;-66
2023/05/29 12:59:47;;;;;;;6.10;3.35;;;;;;;;;;4978235;28;20061;-75
2023/05/29 13:02:32;;;;;;;7.47;3.33;;;;;;;;;;4976560;28;20092;-74
2023/05/29 13:05:18;;;;;;;5.97;3.55;;;;;;;;;;4969365;28;20030;-78
2023/05/29 13:08:07;;;;;;;5.93;3.53;;;;;;;;;;4970275;28;20084;-74
2023/05/29 13:10:52;;;;;;;6.03;3.13;;;;;;;;;;4970984;28;20032;-72
2023/05/29 13:13:38;;;;;;;5.32;2.97;;;;;;;;;;5013859;28;20381;-67
2023/05/29 13:16:23;;;;;;;7.05;3.80;;;;;;;;;;5031693;28;20507;-66
2023/05/29 13:19:08;;;;;;;7.07;3.80;;;;;;;;;;5043375;28;20036;-68
2023/05/29 13:21:53;;;;;;;5.68;3.47;;;;;;;;;;5044428;28;20375;-66
2023/05/29 13:24:39;;;;;;;9.70;3.88;;;;;;;;;;5043618;28;20029;-65
2023/05/29 13:27:24;;;;;;;5.93;3.42;;;;;;;;;;5028129;28;20029;-65
2023/05/29 13:30:10;;;;;;;8.52;3.60;;;;;;;;;;5033105;28;20056;-68
2023/05/29 13:32:55;;;;;;;7.50;3.67;;;;;;;;;;5043431;28;20034;-67
2023/05/29 13:35:40;;;;;;;6.32;3.22;;;;;;;;;;5043988;28;20033;-65
2023/05/29 13:38:25;;;;;;;6.57;3.70;;;;;;;;;;5027332;28;20037;-65
2023/05/29 13:41:11;;;;;;;11.73;4.07;;;;;;;;;;5029579;28;20052;-67
2023/05/29 13:43:56;;;;;;;4.90;3.45;;;;;;;;;;5037856;28;20468;-65
2023/05/29 13:46:41;;;;;;;7.97;3.92;;;;;;;;;;5036720;28;20041;-64
2023/05/29 13:49:27;;;;;;;5.85;3.40;;;;;;;;;;5037790;28;21751;-75
2023/05/29 13:52:12;;;;;;;7.20;3.30;;;;;;;;;;5024923;28;20104;-81
2023/05/29 13:55:00;;;;;;;8.20;3.38;;;;;;;;;;5030834;28;20025;-67
2023/05/29 13:57:45;;;;;;;8.63;3.38;;;;;;;;;;5039502;28;20296;-68
2023/05/29 14:00:30;;;;;;;6.10;3.35;;;;;;;;;;5034342;28;20109;-66
2023/05/29 14:03:15;;;;;;;5.05;3.35;;;;;;;;;;5030150;28;20048;-67
2023/05/29 14:06:04;;;;;;;5.15;3.17;;;;;;;;;;5033458;28;20139;-70
2023/05/29 14:08:50;;;;;;;6.15;3.28;;;;;;;;;;5036791;28;20506;-74
2023/05/29 14:11:36;;;;;;;4.25;2.97;;;;;;;;;;5039456;23;20061;-64
2023/05/29 14:14:22;;;;;;;6.63;3.88;;;;;;;;;;4971499;28;20034;-63
2023/05/29 14:17:07;;;;;;;5.53;3.50;;;;;;;;;;4990113;28;20068;-63
2023/05/29 14:19:52;;;;;;;9.73;3.70;;;;;;;;;;4992339;28;20030;-63
2023/05/29 14:22:38;;;;;;;4.82;3.40;;;;;;;;;;4975814;28;20101;-63
2023/05/29 14:25:23;;;;;;;6.75;3.58;;;;;;;;;;4983328;28;20046;-63
2023/05/29 14:28:08;;;;;;;6.78;3.75;;;;;;;;;;4985632;28;20520;-64
2023/05/29 14:30:54;;;;;;;10.20;4.45;;;;;;;;;;4991741;28;20125;-63
2023/05/29 14:33:39;;;;;;;7.55;3.60;;;;;;;;;;4989565;28;20634;-63
2023/05/29 14:36:24;;;;;;;14.45;4.00;;;;;;;;;;4984107;28;20088;-65
2023/05/29 14:39:10;;;;;;;4.57;3.13;;;;;;;;;;4993678;28;20037;-62
2023/05/29 14:41:55;;;;;;;6.45;3.78;;;;;;;;;;4988634;28;20062;-63
2023/05/29 14:44:40;;;;;;;6.97;3.47;;;;;;;;;;4976119;28;20046;-69
2023/05/29 14:47:25;;;;;;;6.18;3.72;;;;;;;;;;4991792;28;20133;-63
2023/05/29 14:50:11;;;;;;;6.03;3.42;;;;;;;;;;4989397;28;20152;-61
2023/05/29 14:52:56;;;;;;;5.85;3.03;;;;;;;;;;4983277;28;20041;-62
2023/05/29 14:55:42;;;;;;;4.93;3.33;;;;;;;;;;4987139;28;20096;-63
2023/05/29 14:58:27;;;;;;;5.40;3.35;;;;;;;;;;4985339;28;20501;-63
2023/05/29 15:01:12;;;;;;;5.28;2.95;;;;;;;;;;4985471;28;20492;-66
2023/05/29 15:03:58;;;;;;;6.10;3.28;;;;;;;;;;4985384;28;20030;-75
2023/05/29 15:06:43;;;;;;;7.28;3.95;;;;;;;;;;4995755;28;20037;-70
2023/05/29 15:09:29;;;;;;;6.53;3.63;;;;;;;;;;4995723;28;20592;-70
2023/05/29 15:12:14;;;;;;;8.50;3.47;;;;;;;;;;4996005;28;20037;-68
2023/05/29 15:14:59;;;;;;;7.30;3.33;;;;;;;;;;4992183;28;20415;-70
2023/05/29 15:17:46;;;;;;;5.57;3.22;;;;;;;;;;4986362;28;20040;-70
2023/05/29 15:20:31;;;;;;;6.70;3.72;;;;;;;;;;4985213;28;20473;-69
2023/05/29 15:23:17;;;;;;;7.22;3.63;;;;;;;;;;4987270;28;20029;-76
2023/05/29 15:26:03;;;;;;;5.55;3.40;;;;;;;;;;4992232;28;20061;-66
2023/05/29 15:28:48;;;;;;;5.25;3.25;;;;;;;;;;4972519;28;20530;-65
2023/05/29 15:31:33;;;;;;;7.45;3.20;;;;;;;;;;4985377;28;20468;-65
2023/05/29 15:34:18;;;;;;;6.28;3.47;;;;;;;;;;4996792;28;20121;-65
2023/05/29 15:37:04;;;;;;;6.93;3.33;;;;;;;;;;4991013;28;20038;-64
2023/05/29 15:39:49;;;;;;;8.65;3.55;;;;;;;;;;4990020;28;20432;-70
2023/05/29 15:42:34;;;;;;;6.32;3.72;;;;;;;;;;4992339;28;20273;-65
2023/05/29 15:45:19;;;;;;;6.93;3.53;;;;;;;;;;4991153;28;20064;-64
2023/05/29 15:48:05;;;;;;;5.10;3.72;;;;;;;;;;4983457;28;20057;-66
2023/05/29 15:50:50;;;;;;;5.50;3.17;;;;;;;;;;4989018;28;20021;-65
2023/05/29 15:53:35;;;;;;;7.53;3.22;;;;;;;;;;4997030;28;20096;-64
2023/05/29 15:56:28;;;;;;;5.60;3.13;;;;;;;;;;4991360;28;20390;-65
2023/05/29 15:59:13;;;;;;;11.57;3.80;;;;;;;;;;4994485;28;20042;-69
2023/05/29 16:01:58;;;;;;;4.93;3.65;;;;;;;;;;4974098;28;20026;-73
2023/05/29 16:04:44;;;;;;;8.32;3.67;;;;;;;;;;4988844;28;20172;-76
2023/05/29 16:07:29;;;;;;;5.68;2.85;;;;;;;;;;4972370;28;20469;-73
2023/05/29 16:10:17;;;;;;;4.55;2.78;;;;;;;;;;4990354;28;20065;-73
2023/05/29 16:13:02;;;;;;;6.93;3.75;;;;;;;;;;4976360;28;20066;-73
2023/05/29 16:15:48;;;;;;;6.43;3.42;;;;;;;;;;4992680;28;20427;-72
2023/05/29 16:18:33;;;;;;;3.90;2.60;;;;;;;;;;4995715;28;20026;-65
2023/05/29 16:21:18;;;;;;;8.45;3.05;;;;;;;;;;4989211;28;20306;-64
2023/05/29 16:24:04;;;;;;;7.18;3.20;;;;;;;;;;4973030;28;20388;-65
2023/05/29 16:26:49;;;;;;;6.35;3.05;;;;;;;;;;4984359;28;20045;-66
2023/05/29 16:29:34;;;;;;;7.22;3.65;;;;;;;;;;4991577;28;20305;-64
2023/05/29 16:32:20;;;;;;;6.07;3.53;;;;;;;;;;4993769;28;20034;-64
2023/05/29 16:35:06;;;;;;;6.88;3.25;;;;;;;;;;4993009;28;20384;-75